createdAt,value
2022-12-22T00:05:04.636Z,2.10
2022-12-22T00:10:26.160Z,2.30
2022-12-22T00:15:50.177Z,1.80
2022-12-22T00:21:10.979Z,1.60
2022-12-22T00:26:31.937Z,2.20
2022-12-22T00:31:53.371Z,2.05
2022-12-22T00:37:14.341Z,2.40
2022-12-22T00:42:35.082Z,2.15
2022-12-22T00:47:56.040Z,2.05
2022-12-22T00:53:18.812Z,1.80
2022-12-22T00:58:39.708Z,1.43
2022-12-22T01:04:00.554Z,2.10
2022-12-22T01:09:22.836Z,3.00
2022-12-22T01:14:44.069Z,2.25
2022-12-22T01:20:05.926Z,2.20
2022-12-22T01:25:34.838Z,3.15
2022-12-22T01:30:55.756Z,1.55
2022-12-22T01:36:16.837Z,2.20
2022-12-22T01:41:39.643Z,2.40
2022-12-22T01:47:05.265Z,2.30
2022-12-22T01:52:28.034Z,2.97
2022-12-22T01:57:50.345Z,2.97
2022-12-22T02:03:11.284Z,2.40
2022-12-22T02:08:42.639Z,2.55
2022-12-22T02:14:29.507Z,3.25
2022-12-22T02:20:16.417Z,2.40
2022-12-22T02:25:46.684Z,2.35
2022-12-22T02:31:09.105Z,1.90
2022-12-22T02:36:33.795Z,2.40
2022-12-22T02:42:19.699Z,1.80
2022-12-22T02:48:09.069Z,2.00
2022-12-22T02:53:30.898Z,2.95
2022-12-22T02:58:53.039Z,2.75
2022-12-22T03:04:13.840Z,2.05
2022-12-22T03:09:34.847Z,1.80
2022-12-22T03:14:56.115Z,1.50
2022-12-22T03:20:16.998Z,1.20
2022-12-22T03:25:37.777Z,1.10
2022-12-22T03:30:40.033Z,1.60
2022-12-22T03:35:44.454Z,1.65
2022-12-22T03:40:46.954Z,1.40
2022-12-22T03:46:13.441Z,1.37
2022-12-22T03:51:15.636Z,1.95
2022-12-22T03:56:17.799Z,1.92
2022-12-22T04:01:20.000Z,1.60
2022-12-22T04:06:22.210Z,2.03
2022-12-22T04:11:42.705Z,2.10
2022-12-22T04:16:44.942Z,1.90
2022-12-22T04:21:47.117Z,1.33
2022-12-22T04:26:50.302Z,2.75
2022-12-22T04:31:52.490Z,1.33
2022-12-22T04:36:54.989Z,1.15
2022-12-22T04:41:57.687Z,1.20
2022-12-22T04:46:59.798Z,0.90
2022-12-22T04:52:01.997Z,0.98
2022-12-22T04:57:04.304Z,1.15
2022-12-22T05:02:06.906Z,1.00
2022-12-22T05:12:30.555Z,0.80
2022-12-22T05:17:32.679Z,1.20
2022-12-22T05:22:34.776Z,0.88
2022-12-22T05:27:37.009Z,1.17
2022-12-22T05:32:39.919Z,1.37
2022-12-22T05:37:42.091Z,1.07
2022-12-22T05:42:44.215Z,0.60
2022-12-22T05:47:52.261Z,0.70
2022-12-22T05:52:54.830Z,1.20
2022-12-22T05:57:57.460Z,1.67
2022-12-22T06:08:01.805Z,1.60
2022-12-22T06:13:03.981Z,1.05
2022-12-22T06:18:06.223Z,1.85
2022-12-22T06:23:08.546Z,1.20
2022-12-22T06:28:10.736Z,1.73
2022-12-22T06:33:12.901Z,1.83
2022-12-22T06:38:15.050Z,1.77
2022-12-22T06:43:17.636Z,2.22
2022-12-22T06:48:20.658Z,1.55
2022-12-22T06:53:23.466Z,0.93
2022-12-22T06:58:25.577Z,1.12
2022-12-22T07:03:28.309Z,0.80
2022-12-22T07:08:30.557Z,1.00
2022-12-22T07:13:34.963Z,1.98
2022-12-22T07:18:39.999Z,1.50
2022-12-22T07:23:42.201Z,1.23
2022-12-22T07:28:44.571Z,1.00
2022-12-22T07:33:47.216Z,1.70
2022-12-22T07:38:53.566Z,1.30
2022-12-22T07:43:58.227Z,1.67
2022-12-22T07:49:18.742Z,2.03
2022-12-22T07:54:20.809Z,2.30
2022-12-22T07:59:23.021Z,3.15
2022-12-22T08:04:25.740Z,2.62
2022-12-22T08:14:30.187Z,2.43
2022-12-22T08:19:34.087Z,1.73
2022-12-22T08:24:36.565Z,1.90
2022-12-22T08:29:41.121Z,2.92
2022-12-22T08:34:44.175Z,2.23
2022-12-22T08:39:52.220Z,2.30
2022-12-22T08:44:54.864Z,1.65
2022-12-22T08:54:59.065Z,1.50
2022-12-22T09:00:01.640Z,2.17
2022-12-22T09:05:04.786Z,1.77
2022-12-22T09:10:08.653Z,2.27
2022-12-22T09:15:11.085Z,1.85
2022-12-22T09:20:14.147Z,1.30
2022-12-22T09:25:18.330Z,1.07
2022-12-22T09:30:20.674Z,1.40
2022-12-22T09:35:22.827Z,0.73
2022-12-22T09:40:26.901Z,1.15
2022-12-22T09:45:30.325Z,1.13
2022-12-22T09:50:33.698Z,0.50
2022-12-22T09:55:42.553Z,0.50
2022-12-22T10:00:51.124Z,0.60
2022-12-22T10:06:15.765Z,0.60
2022-12-22T10:11:19.313Z,0.80
2022-12-22T10:16:28.717Z,0.75
2022-12-22T10:21:31.540Z,1.00
2022-12-22T10:26:34.499Z,0.50
2022-12-22T10:31:54.727Z,0.70
2022-12-22T10:37:03.178Z,0.55
2022-12-22T10:42:13.272Z,0.63
2022-12-22T10:47:24.368Z,0.57
2022-12-22T10:52:32.743Z,0.57
2022-12-22T10:57:37.107Z,0.57
2022-12-22T11:02:40.064Z,0.50
2022-12-22T11:07:44.568Z,0.30
2022-12-22T11:13:17.453Z,0.40
2022-12-22T11:18:33.643Z,0.33
2022-12-22T11:24:07.047Z,0.47
2022-12-22T11:29:15.352Z,0.32
2022-12-22T11:34:39.074Z,0.30
2022-12-22T11:45:34.241Z,0.30
2022-12-22T11:51:01.919Z,0.67
2022-12-22T11:56:26.714Z,0.40
2022-12-22T12:01:47.463Z,0.13
2022-12-22T12:07:02.349Z,0.20
2022-12-22T12:12:13.467Z,0.40
2022-12-22T12:17:28.753Z,0.13
2022-12-22T12:23:01.583Z,0.20
2022-12-22T12:28:03.621Z,0.10
2022-12-22T12:33:21.011Z,0.10
2022-12-22T12:44:06.232Z,0.30
2022-12-22T12:49:50.353Z,0.30
2022-12-22T12:55:17.131Z,0.28
2022-12-22T13:00:32.267Z,0.30
2022-12-22T13:05:51.818Z,0.37
2022-12-22T13:10:53.914Z,0.10
2022-12-22T13:16:02.495Z,0.68
2022-12-22T13:26:51.699Z,0.40
2022-12-22T13:32:01.685Z,0.10
2022-12-22T13:37:17.637Z,0.20
2022-12-22T13:42:19.834Z,0.45
2022-12-22T13:47:21.956Z,0.10
2022-12-22T13:52:24.473Z,0.47
2022-12-22T13:57:26.667Z,0.73
2022-12-22T14:02:32.692Z,0.37
2022-12-22T14:07:35.499Z,0.30
2022-12-22T14:12:44.640Z,0.43
2022-12-22T14:17:52.653Z,0.47
2022-12-22T14:23:04.339Z,0.32
2022-12-22T14:28:15.491Z,0.65
2022-12-22T14:33:30.859Z,0.28
2022-12-22T14:38:41.019Z,0.30
2022-12-22T14:43:43.158Z,1.12
2022-12-22T14:48:47.414Z,0.32
2022-12-22T14:53:49.611Z,0.60
2022-12-22T14:58:51.855Z,0.43
2022-12-22T15:04:04.659Z,0.90
2022-12-22T15:09:08.688Z,1.33
2022-12-22T15:14:13.014Z,0.70
2022-12-22T15:19:17.660Z,0.20
2022-12-22T15:24:19.849Z,0.52
2022-12-22T15:29:22.115Z,0.40
2022-12-22T15:34:30.827Z,0.60
2022-12-22T15:39:33.367Z,0.33
2022-12-22T15:44:38.991Z,0.70
2022-12-22T15:49:41.648Z,1.20
2022-12-22T15:54:44.624Z,0.98
2022-12-22T15:59:46.816Z,2.80
2022-12-22T16:04:49.366Z,1.87
2022-12-22T16:09:51.566Z,2.30
2022-12-22T16:14:56.904Z,3.10
2022-12-22T16:20:00.319Z,4.00
2022-12-22T16:25:04.669Z,4.47
2022-12-22T16:30:12.023Z,4.67
2022-12-22T16:35:20.382Z,4.17
2022-12-22T16:40:22.674Z,5.13
2022-12-22T16:45:28.710Z,7.55
2022-12-22T16:50:33.913Z,5.70
2022-12-22T16:55:36.224Z,6.43
2022-12-22T17:00:40.770Z,7.90
2022-12-22T17:05:48.465Z,7.90
2022-12-22T17:10:53.009Z,5.77
2022-12-22T17:15:55.758Z,7.67
2022-12-22T17:21:00.317Z,7.90
2022-12-22T17:26:06.312Z,6.10
2022-12-22T17:31:13.811Z,6.83
2022-12-22T17:36:35.665Z,5.23
2022-12-22T17:41:37.843Z,6.70
2022-12-22T17:46:40.123Z,5.68
2022-12-22T17:51:42.816Z,8.85
2022-12-22T17:56:45.907Z,35.60
2022-12-22T18:01:48.107Z,41.20
2022-12-22T18:06:50.398Z,10.75
2022-12-22T18:11:54.324Z,15.90
2022-12-22T18:16:56.565Z,98.10
2022-12-22T18:21:59.342Z,117.15
2022-12-22T18:32:03.938Z,17.97
2022-12-22T18:37:26.604Z,8.00
2022-12-22T18:42:29.092Z,7.40
2022-12-22T18:47:31.228Z,6.82
2022-12-22T18:52:33.483Z,8.20
2022-12-22T18:57:35.585Z,6.78
2022-12-22T19:02:37.816Z,6.28
2022-12-22T19:07:40.428Z,8.20
2022-12-22T19:12:43.202Z,6.50
2022-12-22T19:22:48.315Z,7.30
2022-12-22T19:27:54.044Z,7.07
2022-12-22T19:33:02.668Z,8.07
2022-12-22T19:38:17.916Z,7.13
2022-12-22T19:43:20.323Z,7.00
2022-12-22T19:48:24.508Z,7.28
2022-12-22T19:53:28.415Z,7.73
2022-12-22T19:58:37.858Z,6.83
2022-12-22T20:03:40.443Z,5.47
2022-12-22T20:08:42.709Z,9.40
2022-12-22T20:13:46.588Z,7.00
2022-12-22T20:18:48.773Z,5.47
2022-12-22T20:23:51.584Z,5.18
2022-12-22T20:28:54.517Z,4.57
2022-12-22T20:33:56.617Z,6.40
2022-12-22T20:39:00.354Z,4.37
2022-12-22T20:44:02.557Z,5.30
2022-12-22T20:49:10.725Z,3.78
2022-12-22T20:54:16.255Z,4.37
2022-12-22T20:59:21.369Z,4.55
2022-12-22T21:04:23.698Z,5.10
2022-12-22T21:09:26.899Z,3.95
2022-12-22T21:14:29.001Z,3.63
2022-12-22T21:19:31.064Z,4.70
2022-12-22T21:24:33.672Z,4.32
2022-12-22T21:29:36.215Z,4.30
2022-12-22T21:34:38.500Z,4.55
2022-12-22T21:39:47.105Z,4.07
2022-12-22T21:44:50.547Z,3.20
2022-12-22T21:49:52.701Z,3.93
2022-12-22T21:54:54.921Z,5.30
2022-12-22T21:59:57.013Z,3.55
2022-12-22T22:05:01.282Z,3.67
2022-12-22T22:10:03.893Z,3.10
2022-12-22T22:15:07.363Z,3.25
2022-12-22T22:20:18.510Z,3.35
2022-12-22T22:25:22.047Z,3.00
2022-12-22T22:30:25.861Z,3.00
2022-12-22T22:35:28.693Z,3.57
2022-12-22T22:40:30.825Z,1.90
2022-12-22T22:45:32.945Z,2.12
2022-12-22T22:50:35.483Z,1.70
2022-12-22T22:55:37.603Z,2.58
2022-12-22T23:00:40.806Z,2.15
2022-12-22T23:05:42.873Z,2.07
2022-12-22T23:10:49.576Z,1.90
2022-12-22T23:15:59.690Z,2.60
2022-12-22T23:21:04.083Z,2.55
2022-12-22T23:26:07.252Z,1.40
2022-12-22T23:31:12.620Z,1.80
2022-12-22T23:36:15.115Z,1.90
2022-12-22T23:41:18.174Z,1.80
2022-12-22T23:46:20.780Z,1.93
2022-12-22T23:56:26.882Z,1.80
